Terminal Aerodrome Forecast
Issued by NWS

Home | Current Version | Previous Version | Text Only | Print | Product List | Glossary On
Versions: 1 2 3 4 5 6 7 8 9 10 11 12 13 14 15 16 17 18 19 20 21
272
FTUS44 KMAF 281404 AAA
TAFFST
TAF AMD
KFST 281404Z 2814/2912 27011KT P6SM BKN250
     FM281600 30014G22KT P6SM BKN250
     FM282000 26013G20KT P6SM BKN250=

USA.gov is the U.S. government's official web portal to all federal, state and local government web resources and services.